Terminal Aerodrome Forecast
Issued by NWS

Home | Current Version | Previous Version | Text Only | Print | Product List | Glossary On
Versions: 1 2 3 4 5 6 7 8 9 10 11 12 13
000
FTAK31 PAFA 271739
TAFAGA
TAF
PAGA 271739Z 2718/2818 VRB06KT P6SM VCSH BKN050 OVC080
     FM272000 VRB06G18KT P6SM VCTS SCT035 BKN050CB BKN100
     FM280800 VRB06KT P6SM -SHRA SCT035 BKN050 BKN100=

USA.gov is the U.S. government's official web portal to all federal, state and local government web resources and services.